sensor_id;sensor_type;location;lat;lon;timestamp;pressure;altitude;pressure_sealevel;temperature;humidity
68594;BME280;55563;52.416;13.548;2022-10-16T00:01:51;100750.97;;;13.01;100.00
68594;BME280;55563;52.416;13.548;2022-10-16T00:03:52;100751.75;;;13.06;100.00
68594;BME280;55563;52.416;13.548;2022-10-16T00:05:53;100751.75;;;13.06;100.00
68594;BME280;55563;52.416;13.548;2022-10-16T00:07:54;100757.81;;;13.07;100.00
68594;BME280;55563;52.416;13.548;2022-10-16T00:09:54;100761.50;;;13.11;100.00
68594;BME280;55563;52.416;13.548;2022-10-16T00:11:55;100767.03;;;13.15;100.00
68594;BME280;55563;52.416;13.548;2022-10-16T00:13:58;100772.56;;;13.18;100.00
68594;BME280;55563;52.416;13.548;2022-10-16T00:16:00;100771.72;;;13.28;100.00
68594;BME280;55563;52.416;13.548;2022-10-16T00:18:01;100769.91;;;13.23;100.00
68594;BME280;55563;52.416;13.548;2022-10-16T00:20:02;100770.66;;;13.24;100.00
68594;BME280;55563;52.416;13.548;2022-10-16T00:22:23;100773.59;;;13.22;100.00
68594;BME280;55563;52.416;13.548;2022-10-16T00:24:23;100763.31;;;13.21;100.00
68594;BME280;55563;52.416;13.548;2022-10-16T00:26:26;100764.63;;;13.23;100.00
68594;BME280;55563;52.416;13.548;2022-10-16T00:28:27;100764.34;;;13.25;100.00
68594;BME280;55563;52.416;13.548;2022-10-16T00:30:28;100767.78;;;13.20;100.00
68594;BME280;55563;52.416;13.548;2022-10-16T00:32:29;100774.38;;;13.28;100.00
68594;BME280;55563;52.416;13.548;2022-10-16T00:34:30;100782.78;;;13.30;100.00
68594;BME280;55563;52.416;13.548;2022-10-16T00:36:30;100788.88;;;13.30;100.00
68594;BME280;55563;52.416;13.548;2022-10-16T00:38:32;100789.38;;;13.32;100.00
68594;BME280;55563;52.416;13.548;2022-10-16T00:40:33;100785.41;;;13.35;100.00
68594;BME280;55563;52.416;13.548;2022-10-16T00:42:33;100788.00;;;13.40;100.00
68594;BME280;55563;52.416;13.548;2022-10-16T00:44:45;100788.00;;;13.40;100.00
68594;BME280;55563;52.416;13.548;2022-10-16T00:46:46;100791.19;;;13.42;100.00
68594;BME280;55563;52.416;13.548;2022-10-16T00:49:15;100785.13;;;13.41;100.00
68594;BME280;55563;52.416;13.548;2022-10-16T00:51:19;100786.97;;;13.41;100.00
68594;BME280;55563;52.416;13.548;2022-10-16T00:53:23;100783.53;;;13.40;100.00
68594;BME280;55563;52.416;13.548;2022-10-16T00:55:25;100785.38;;;13.40;100.00
68594;BME280;55563;52.416;13.548;2022-10-16T00:57:28;100782.19;;;13.43;100.00
68594;BME280;55563;52.416;13.548;2022-10-16T00:59:34;100785.38;;;13.40;100.00
68594;BME280;55563;52.416;13.548;2022-10-16T01:01:36;100786.44;;;13.39;100.00
68594;BME280;55563;52.416;13.548;2022-10-16T01:03:37;100785.63;;;13.38;100.00
68594;BME280;55563;52.416;13.548;2022-10-16T01:05:44;100791.22;;;13.37;100.00
68594;BME280;55563;52.416;13.548;2022-10-16T01:08:12;100789.88;;;13.39;100.00
68594;BME280;55563;52.416;13.548;2022-10-16T01:10:25;100783.81;;;13.34;100.00
68594;BME280;55563;52.416;13.548;2022-10-16T01:15:35;100793.31;;;13.35;100.00
68594;BME280;55563;52.416;13.548;2022-10-16T01:20:14;100792.84;;;13.28;100.00
68594;BME280;55563;52.416;13.548;2022-10-16T01:22:19;100799.69;;;13.29;100.00
68594;BME280;55563;52.416;13.548;2022-10-16T01:24:40;100796.53;;;13.32;100.00
68594;BME280;55563;52.416;13.548;2022-10-16T01:27:13;100799.69;;;13.29;100.00
68594;BME280;55563;52.416;13.548;2022-10-16T01:29:21;100791.03;;;13.23;100.00
68594;BME280;55563;52.416;13.548;2022-10-16T01:31:28;100802.09;;;13.25;100.00
68594;BME280;55563;52.416;13.548;2022-10-16T01:33:35;100801.81;;;13.27;100.00
68594;BME280;55563;52.416;13.548;2022-10-16T01:35:40;100815.53;;;13.24;100.00
68594;BME280;55563;52.416;13.548;2022-10-16T01:37:48;100815.53;;;13.24;100.00
68594;BME280;55563;52.416;13.548;2022-10-16T01:39:52;100807.38;;;13.25;100.00
68594;BME280;55563;52.416;13.548;2022-10-16T01:42:04;100810.25;;;13.24;100.00
68594;BME280;55563;52.416;13.548;2022-10-16T01:44:11;100813.44;;;13.26;100.00
68594;BME280;55563;52.416;13.548;2022-10-16T01:46:17;100810.78;;;13.26;100.00
68594;BME280;55563;52.416;13.548;2022-10-16T01:48:20;100810.56;;;13.22;100.00
68594;BME280;55563;52.416;13.548;2022-10-16T01:50:24;100817.13;;;13.25;100.00
68594;BME280;55563;52.416;13.548;2022-10-16T01:52:26;100821.88;;;13.28;100.00
68594;BME280;55563;52.416;13.548;2022-10-16T01:54:30;100821.88;;;13.28;100.00
68594;BME280;55563;52.416;13.548;2022-10-16T01:56:33;100816.31;;;13.29;100.00
68594;BME280;55563;52.416;13.548;2022-10-16T01:58:38;100815.81;;;13.27;100.00
68594;BME280;55563;52.416;13.548;2022-10-16T02:00:44;100832.94;;;13.30;100.00
68594;BME280;55563;52.416;13.548;2022-10-16T02:02:50;100837.69;;;13.33;100.00
68594;BME280;55563;52.416;13.548;2022-10-16T02:04:57;100842.19;;;13.32;100.00
68594;BME280;55563;52.416;13.548;2022-10-16T02:06:59;100840.06;;;13.34;100.00
68594;BME280;55563;52.416;13.548;2022-10-16T02:09:00;100835.31;;;13.36;100.00
68594;BME280;55563;52.416;13.548;2022-10-16T02:11:01;100838.19;;;13.40;100.00
68594;BME280;55563;52.416;13.548;2022-10-16T02:13:10;100832.41;;;13.38;100.00
68594;BME280;55563;52.416;13.548;2022-10-16T02:15:13;100837.69;;;13.38;100.00
68594;BME280;55563;52.416;13.548;2022-10-16T02:17:16;100846.09;;;13.40;100.00
68594;BME280;55563;52.416;13.548;2022-10-16T02:19:18;100846.09;;;13.40;100.00
68594;BME280;55563;52.416;13.548;2022-10-16T02:21:30;100850.56;;;13.44;100.00
68594;BME280;55563;52.416;13.548;2022-10-16T02:23:45;100843.19;;;13.46;100.00
68594;BME280;55563;52.416;13.548;2022-10-16T02:25:52;100846.31;;;13.48;100.00
68594;BME280;55563;52.416;13.548;2022-10-16T02:28:06;100852.13;;;13.50;100.00
68594;BME280;55563;52.416;13.548;2022-10-16T02:30:24;100844.44;;;13.54;100.00
68594;BME280;55563;52.416;13.548;2022-10-16T02:32:30;100843.63;;;13.59;100.00
68594;BME280;55563;52.416;13.548;2022-10-16T02:34:32;100832.56;;;13.57;100.00
68594;BME280;55563;52.416;13.548;2022-10-16T02:36:35;100827.00;;;13.58;100.00
68594;BME280;55563;52.416;13.548;2022-10-16T02:38:36;100835.44;;;13.60;100.00
68594;BME280;55563;52.416;13.548;2022-10-16T02:40:38;100829.09;;;13.61;100.00
68594;BME280;55563;52.416;13.548;2022-10-16T02:42:40;100833.28;;;13.62;100.00
68594;BME280;55563;52.416;13.548;2022-10-16T02:44:41;100840.97;;;13.64;100.00
68594;BME280;55563;52.416;13.548;2022-10-16T02:46:41;100849.41;;;13.66;100.00
68594;BME280;55563;52.416;13.548;2022-10-16T02:48:42;100848.34;;;13.67;100.00
68594;BME280;55563;52.416;13.548;2022-10-16T02:50:43;100849.41;;;13.66;100.00
68594;BME280;55563;52.416;13.548;2022-10-16T02:52:43;100851.50;;;13.69;100.00
68594;BME280;55563;52.416;13.548;2022-10-16T02:54:44;100851.22;;;13.70;100.00
68594;BME280;55563;52.416;13.548;2022-10-16T02:56:45;100851.22;;;13.70;100.00
68594;BME280;55563;52.416;13.548;2022-10-16T02:58:45;100857.81;;;13.73;100.00
68594;BME280;55563;52.416;13.548;2022-10-16T03:00:46;100853.06;;;13.75;100.00
68594;BME280;55563;52.416;13.548;2022-10-16T03:02:46;100864.91;;;13.77;100.00
68594;BME280;55563;52.416;13.548;2022-10-16T03:04:47;100861.19;;;13.83;100.00
68594;BME280;55563;52.416;13.548;2022-10-16T03:06:47;100861.44;;;13.82;100.00
68594;BME280;55563;52.416;13.548;2022-10-16T03:08:48;100863.81;;;13.83;100.00
68594;BME280;55563;52.416;13.548;2022-10-16T03:10:49;100868.31;;;13.83;100.00
68594;BME280;55563;52.416;13.548;2022-10-16T03:12:50;100870.72;;;13.79;100.00
68594;BME280;55563;52.416;13.548;2022-10-16T03:14:51;100871.28;;;13.76;100.00
68594;BME280;55563;52.416;13.548;2022-10-16T03:16:51;100876.56;;;13.76;100.00
68594;BME280;55563;52.416;13.548;2022-10-16T03:18:52;100887.63;;;13.78;100.00
68594;BME280;55563;52.416;13.548;2022-10-16T03:20:53;100897.69;;;13.76;100.00
68594;BME280;55563;52.416;13.548;2022-10-16T03:22:53;100889.25;;;13.74;100.00
68594;BME280;55563;52.416;13.548;2022-10-16T03:24:54;100889.25;;;13.74;100.00
68594;BME280;55563;52.416;13.548;2022-10-16T03:26:55;100882.38;;;13.73;100.00
68594;BME280;55563;52.416;13.548;2022-10-16T03:28:55;100874.78;;;13.67;100.00
68594;BME280;55563;52.416;13.548;2022-10-16T03:30:56;100873.19;;;13.66;100.00
68594;BME280;55563;52.416;13.548;2022-10-16T03:32:57;100881.13;;;13.61;100.00
68594;BME280;55563;52.416;13.548;2022-10-16T03:34:57;100887.22;;;13.61;100.00
68594;BME280;55563;52.416;13.548;2022-10-16T03:36:58;100899.34;;;13.62;100.00
68594;BME280;55563;52.416;13.548;2022-10-16T03:38:58;100894.34;;;13.61;100.00
68594;BME280;55563;52.416;13.548;2022-10-16T03:40:59;100894.34;;;13.61;100.00
68594;BME280;55563;52.416;13.548;2022-10-16T03:43:00;100902.78;;;13.58;100.00
68594;BME280;55563;52.416;13.548;2022-10-16T03:45:00;100904.63;;;13.62;100.00
68594;BME280;55563;52.416;13.548;2022-10-16T03:47:01;100910.19;;;13.61;100.00
68594;BME280;55563;52.416;13.548;2022-10-16T03:49:02;100918.38;;;13.59;100.00
68594;BME280;55563;52.416;13.548;2022-10-16T03:51:03;100917.56;;;13.59;100.00
68594;BME280;55563;52.416;13.548;2022-10-16T03:53:03;100917.34;;;13.55;100.00
68594;BME280;55563;52.416;13.548;2022-10-16T03:55:04;100911.03;;;13.51;100.00
68594;BME280;55563;52.416;13.548;2022-10-16T03:57:05;100918.16;;;13.50;100.00
68594;BME280;55563;52.416;13.548;2022-10-16T03:59:06;100922.09;;;13.53;100.00
68594;BME280;55563;52.416;13.548;2022-10-16T04:01:06;100917.59;;;13.53;100.00
68594;BME280;55563;52.416;13.548;2022-10-16T04:03:07;100925.03;;;13.51;100.00
68594;BME280;55563;52.416;13.548;2022-10-16T04:05:08;100927.66;;;13.51;100.00
68594;BME280;55563;52.416;13.548;2022-10-16T04:07:09;100925.84;;;13.47;100.00
68594;BME280;55563;52.416;13.548;2022-10-16T04:09:09;100934.81;;;13.46;100.00
68594;BME280;55563;52.416;13.548;2022-10-16T04:11:10;100941.66;;;13.52;100.00
68594;BME280;55563;52.416;13.548;2022-10-16T04:13:11;100948.50;;;13.53;100.00
68594;BME280;55563;52.416;13.548;2022-10-16T04:15:12;100949.56;;;13.52;100.00
68594;BME280;55563;52.416;13.548;2022-10-16T04:17:13;100942.72;;;13.51;100.00
68594;BME280;55563;52.416;13.548;2022-10-16T04:19:14;100942.97;;;13.49;100.00
68594;BME280;55563;52.416;13.548;2022-10-16T04:21:14;100940.06;;;13.51;100.00
68594;BME280;55563;52.416;13.548;2022-10-16T04:23:15;100940.31;;;13.49;100.00
68594;BME280;55563;52.416;13.548;2022-10-16T04:25:15;100946.41;;;13.50;100.00
68594;BME280;55563;52.416;13.548;2022-10-16T04:27:16;100937.44;;;13.51;100.00
68594;BME280;55563;52.416;13.548;2022-10-16T04:29:17;100936.91;;;13.49;100.00
68594;BME280;55563;52.416;13.548;2022-10-16T04:31:17;100956.44;;;13.48;100.00
68594;BME280;55563;52.416;13.548;2022-10-16T04:33:18;100941.38;;;13.48;100.00
68594;BME280;55563;52.416;13.548;2022-10-16T04:35:20;100943.53;;;13.41;100.00
68594;BME280;55563;52.416;13.548;2022-10-16T04:37:24;100932.72;;;13.38;100.00
68594;BME280;55563;52.416;13.548;2022-10-16T04:39:25;100933.50;;;13.38;100.00
68594;BME280;55563;52.416;13.548;2022-10-16T04:41:26;100927.44;;;13.38;100.00
68594;BME280;55563;52.416;13.548;2022-10-16T04:43:26;100921.09;;;13.39;100.00
68594;BME280;55563;52.416;13.548;2022-10-16T04:45:27;100927.97;;;13.30;100.00
68594;BME280;55563;52.416;13.548;2022-10-16T04:47:28;100932.19;;;13.36;100.00
68594;BME280;55563;52.416;13.548;2022-10-16T04:49:29;100921.66;;;13.31;100.00
68594;BME280;55563;52.416;13.548;2022-10-16T04:51:29;100926.94;;;13.31;100.00
68594;BME280;55563;52.416;13.548;2022-10-16T04:53:30;100928.50;;;13.32;100.00
68594;BME280;55563;52.416;13.548;2022-10-16T04:55:49;100936.94;;;13.29;100.00
68594;BME280;55563;52.416;13.548;2022-10-16T04:57:51;100931.16;;;13.27;100.00
68594;BME280;55563;52.416;13.548;2022-10-16T04:59:52;100936.47;;;13.22;100.00
68594;BME280;55563;52.416;13.548;2022-10-16T05:01:53;100929.03;;;13.24;100.00
68594;BME280;55563;52.416;13.548;2022-10-16T05:03:54;100930.66;;;13.15;100.00
68594;BME280;55563;52.416;13.548;2022-10-16T05:05:54;100937.53;;;13.16;100.00
68594;BME280;55563;52.416;13.548;2022-10-16T05:07:55;100937.25;;;13.17;100.00
68594;BME280;55563;52.416;13.548;2022-10-16T05:09:55;100940.97;;;13.16;100.00
68594;BME280;55563;52.416;13.548;2022-10-16T05:11:56;100958.38;;;13.17;100.00
68594;BME280;55563;52.416;13.548;2022-10-16T05:13:57;100966.81;;;13.14;100.00
68594;BME280;55563;52.416;13.548;2022-10-16T05:15:57;100973.16;;;13.13;100.00
68594;BME280;55563;52.416;13.548;2022-10-16T05:17:58;100982.94;;;13.13;100.00
68594;BME280;55563;52.416;13.548;2022-10-16T05:19:58;100973.66;;;13.10;100.00
68594;BME280;55563;52.416;13.548;2022-10-16T05:22:00;100974.19;;;13.07;100.00
68594;BME280;55563;52.416;13.548;2022-10-16T05:24:01;100981.06;;;13.08;100.00
68594;BME280;55563;52.416;13.548;2022-10-16T05:26:01;100985.28;;;13.04;100.00
68594;BME280;55563;52.416;13.548;2022-10-16T05:28:02;100987.16;;;12.93;100.00
68594;BME280;55563;52.416;13.548;2022-10-16T05:30:03;100986.09;;;12.94;100.00
68594;BME280;55563;52.416;13.548;2022-10-16T05:32:04;100982.13;;;12.92;100.00
68594;BME280;55563;52.416;13.548;2022-10-16T05:34:05;100972.38;;;12.87;100.00
68594;BME280;55563;52.416;13.548;2022-10-16T05:36:08;100975.00;;;12.87;100.00
68594;BME280;55563;52.416;13.548;2022-10-16T05:38:09;100966.03;;;12.93;100.00
68594;BME280;55563;52.416;13.548;2022-10-16T05:40:10;100959.97;;;12.88;100.00
68594;BME280;55563;52.416;13.548;2022-10-16T05:42:12;100963.41;;;12.88;100.00
68594;BME280;55563;52.416;13.548;2022-10-16T05:44:12;100963.91;;;12.90;100.00
68594;BME280;55563;52.416;13.548;2022-10-16T05:46:13;100958.13;;;12.88;100.00
68594;BME280;55563;52.416;13.548;2022-10-16T05:48:14;100966.53;;;12.90;100.00
68594;BME280;55563;52.416;13.548;2022-10-16T05:50:15;100968.13;;;12.91;100.00
68594;BME280;55563;52.416;13.548;2022-10-16T05:52:15;100973.41;;;12.96;100.00
68594;BME280;55563;52.416;13.548;2022-10-16T05:54:16;100987.94;;;12.99;100.00
68594;BME280;55563;52.416;13.548;2022-10-16T05:56:16;100992.66;;;13.02;100.00
68594;BME280;55563;52.416;13.548;2022-10-16T05:58:17;100987.66;;;13.00;100.00
68594;BME280;55563;52.416;13.548;2022-10-16T06:00:17;100998.75;;;12.97;100.00
68594;BME280;55563;52.416;13.548;2022-10-16T06:02:18;100992.94;;;13.00;100.00
68594;BME280;55563;52.416;13.548;2022-10-16T06:04:19;100987.66;;;13.00;100.00
68594;BME280;55563;52.416;13.548;2022-10-16T06:06:22;100984.50;;;12.98;100.00
68594;BME280;55563;52.416;13.548;2022-10-16T06:08:23;100984.22;;;13.00;100.00
68594;BME280;55563;52.416;13.548;2022-10-16T06:10:23;100982.91;;;13.02;100.00
68594;BME280;55563;52.416;13.548;2022-10-16T06:12:24;100990.84;;;13.02;100.00
68594;BME280;55563;52.416;13.548;2022-10-16T06:14:25;100991.09;;;13.01;100.00
68594;BME280;55563;52.416;13.548;2022-10-16T06:16:26;100997.16;;;13.06;100.00
68594;BME280;55563;52.416;13.548;2022-10-16T06:18:27;100995.56;;;13.10;100.00
68594;BME280;55563;52.416;13.548;2022-10-16T06:20:28;101001.66;;;13.16;100.00
68594;BME280;55563;52.416;13.548;2022-10-16T06:22:28;101001.91;;;13.20;100.00
68594;BME280;55563;52.416;13.548;2022-10-16T06:24:29;100998.22;;;13.31;100.00
68594;BME280;55563;52.416;13.548;2022-10-16T06:26:30;101000.59;;;13.37;100.00
68594;BME280;55563;52.416;13.548;2022-10-16T06:28:31;100999.50;;;13.38;100.00
68594;BME280;55563;52.416;13.548;2022-10-16T06:30:31;101014.03;;;13.36;100.00
68594;BME280;55563;52.416;13.548;2022-10-16T06:32:32;101005.06;;;13.42;100.00
68594;BME280;55563;52.416;13.548;2022-10-16T06:34:33;101001.31;;;13.48;100.00
68594;BME280;55563;52.416;13.548;2022-10-16T06:36:33;101008.19;;;13.49;100.00
68594;BME280;55563;52.416;13.548;2022-10-16T06:38:34;101006.34;;;13.49;100.00
68594;BME280;55563;52.416;13.548;2022-10-16T06:40:35;101010.84;;;13.49;100.00
68594;BME280;55563;52.416;13.548;2022-10-16T06:42:35;101015.84;;;13.56;100.00
68594;BME280;55563;52.416;13.548;2022-10-16T06:44:36;101028.00;;;13.57;100.00
68594;BME280;55563;52.416;13.548;2022-10-16T06:46:37;101025.88;;;13.53;100.00
68594;BME280;55563;52.416;13.548;2022-10-16T06:48:37;101027.22;;;13.56;100.00
68594;BME280;55563;52.416;13.548;2022-10-16T06:50:38;101037.22;;;13.59;100.00
68594;BME280;55563;52.416;13.548;2022-10-16T06:52:39;101042.75;;;13.68;100.00
68594;BME280;55563;52.416;13.548;2022-10-16T06:54:39;101048.00;;;13.78;100.00
68594;BME280;55563;52.416;13.548;2022-10-16T06:56:40;101045.38;;;13.73;100.00
68594;BME280;55563;52.416;13.548;2022-10-16T06:58:41;101040.06;;;13.83;100.00
68594;BME280;55563;52.416;13.548;2022-10-16T07:00:42;101049.03;;;13.87;100.00
68594;BME280;55563;52.416;13.548;2022-10-16T07:02:43;101060.13;;;13.94;100.00
68594;BME280;55563;52.416;13.548;2022-10-16T07:04:43;101042.41;;;13.94;100.00
68594;BME280;55563;52.416;13.548;2022-10-16T07:06:44;101050.56;;;14.03;100.00
68594;BME280;55563;52.416;13.548;2022-10-16T07:08:45;101048.47;;;14.00;100.00
68594;BME280;55563;52.416;13.548;2022-10-16T07:10:46;101050.56;;;14.03;100.00
68594;BME280;55563;52.416;13.548;2022-10-16T07:12:47;101054.47;;;14.11;100.00
68594;BME280;55563;52.416;13.548;2022-10-16T07:14:47;101056.84;;;14.17;100.00
68594;BME280;55563;52.416;13.548;2022-10-16T07:16:48;101060.25;;;14.23;100.00
68594;BME280;55563;52.416;13.548;2022-10-16T07:18:49;101079.00;;;14.26;100.00
68594;BME280;55563;52.416;13.548;2022-10-16T07:20:52;101087.72;;;14.32;100.00
68594;BME280;55563;52.416;13.548;2022-10-16T07:22:53;101081.09;;;14.39;100.00
68594;BME280;55563;52.416;13.548;2022-10-16T07:24:53;101069.63;;;14.54;100.00
68594;BME280;55563;52.416;13.548;2022-10-16T07:26:55;101062.38;;;14.75;100.00
68594;BME280;55563;52.416;13.548;2022-10-16T07:28:55;101060.78;;;14.74;100.00
68594;BME280;55563;52.416;13.548;2022-10-16T07:31:07;101064.88;;;14.95;100.00
68594;BME280;55563;52.416;13.548;2022-10-16T07:33:08;101073.84;;;14.99;100.00
68594;BME280;55563;52.416;13.548;2022-10-16T07:35:08;101082.91;;;15.22;100.00
68594;BME280;55563;52.416;13.548;2022-10-16T07:37:09;101082.06;;;15.26;100.00
68594;BME280;55563;52.416;13.548;2022-10-16T07:39:10;101083.06;;;15.36;100.00
68594;BME280;55563;52.416;13.548;2022-10-16T07:41:12;101080.88;;;15.43;100.00
68594;BME280;55563;52.416;13.548;2022-10-16T07:43:14;101072.25;;;15.61;100.00
68594;BME280;55563;52.416;13.548;2022-10-16T07:45:14;101079.94;;;15.62;100.00
68594;BME280;55563;52.416;13.548;2022-10-16T07:47:15;101085.06;;;15.54;100.00
68594;BME280;55563;52.416;13.548;2022-10-16T07:49:16;101078.41;;;15.56;100.00
68594;BME280;55563;52.416;13.548;2022-10-16T07:51:19;101072.81;;;15.58;100.00
68594;BME280;55563;52.416;13.548;2022-10-16T07:53:19;101077.13;;;15.49;100.00
68594;BME280;55563;52.416;13.548;2022-10-16T07:55:20;101090.84;;;15.56;100.00
68594;BME280;55563;52.416;13.548;2022-10-16T07:57:21;101086.63;;;15.50;100.00
68594;BME280;55563;52.416;13.548;2022-10-16T07:59:21;101086.88;;;15.58;100.00
68594;BME280;55563;52.416;13.548;2022-10-16T08:01:22;101091.66;;;15.56;100.00
68594;BME280;55563;52.416;13.548;2022-10-16T08:03:24;101078.56;;;15.65;100.00
68594;BME280;55563;52.416;13.548;2022-10-16T08:05:27;101075.91;;;15.65;100.00
68594;BME280;55563;52.416;13.548;2022-10-16T08:07:28;101085.72;;;15.64;100.00
68594;BME280;55563;52.416;13.548;2022-10-16T08:09:28;101098.91;;;15.69;100.00
68594;BME280;55563;52.416;13.548;2022-10-16T08:11:29;101091.53;;;15.66;100.00
68594;BME280;55563;52.416;13.548;2022-10-16T08:13:35;101085.41;;;15.71;100.00
68594;BME280;55563;52.416;13.548;2022-10-16T08:15:36;101097.06;;;15.70;100.00
68594;BME280;55563;52.416;13.548;2022-10-16T08:17:36;101099.16;;;15.73;100.00
68594;BME280;55563;52.416;13.548;2022-10-16T08:19:37;101102.03;;;15.77;100.00
68594;BME280;55563;52.416;13.548;2022-10-16T08:21:38;101111.00;;;15.81;100.00
68594;BME280;55563;52.416;13.548;2022-10-16T08:23:38;101118.97;;;15.81;100.00
68594;BME280;55563;52.416;13.548;2022-10-16T08:25:40;101113.66;;;15.81;100.00
68594;BME280;55563;52.416;13.548;2022-10-16T08:27:41;101112.19;;;15.93;100.00
68594;BME280;55563;52.416;13.548;2022-10-16T08:29:41;101117.44;;;15.98;100.00
68594;BME280;55563;52.416;13.548;2022-10-16T08:31:42;101118.13;;;16.09;100.00
68594;BME280;55563;52.416;13.548;2022-10-16T08:33:44;101124.44;;;16.13;100.00
68594;BME280;55563;52.416;13.548;2022-10-16T08:35:51;101116.16;;;16.20;100.00
68594;BME280;55563;52.416;13.548;2022-10-16T08:37:52;101115.72;;;16.31;100.00
68594;BME280;55563;52.416;13.548;2022-10-16T08:39:53;101123.00;;;16.44;100.00
68594;BME280;55563;52.416;13.548;2022-10-16T08:42:05;101121.41;;;16.43;100.00
68594;BME280;55563;52.416;13.548;2022-10-16T08:44:52;101125.34;;;16.46;100.00
68594;BME280;55563;52.416;13.548;2022-10-16T08:49:12;101121.13;;;16.69;100.00
68594;BME280;55563;52.416;13.548;2022-10-16T08:51:23;101112.13;;;16.65;100.00
68594;BME280;55563;52.416;13.548;2022-10-16T08:53:29;101120.34;;;16.68;100.00
68594;BME280;55563;52.416;13.548;2022-10-16T08:55:50;101119.94;;;16.75;100.00
68594;BME280;55563;52.416;13.548;2022-10-16T08:57:51;101130.16;;;16.86;100.00
68594;BME280;55563;52.416;13.548;2022-10-16T08:59:52;101137.47;;;16.76;100.00
68594;BME280;55563;52.416;13.548;2022-10-16T09:01:55;101141.25;;;16.70;100.00
68594;BME280;55563;52.416;13.548;2022-10-16T09:06:29;101141.56;;;16.68;100.00
68594;BME280;55563;52.416;13.548;2022-10-16T09:11:03;101141.69;;;16.58;100.00
68594;BME280;55563;52.416;13.548;2022-10-16T09:13:26;101137.81;;;16.69;100.00
68594;BME280;55563;52.416;13.548;2022-10-16T09:15:42;101141.97;;;16.75;100.00
68594;BME280;55563;52.416;13.548;2022-10-16T09:18:12;101151.59;;;16.90;100.00
68594;BME280;55563;52.416;13.548;2022-10-16T09:22:32;101163.94;;;16.99;100.00
68594;BME280;55563;52.416;13.548;2022-10-16T09:24:33;101166.47;;;17.10;100.00
68594;BME280;55563;52.416;13.548;2022-10-16T09:26:34;101159.69;;;17.17;100.00
68594;BME280;55563;52.416;13.548;2022-10-16T09:28:34;101165.44;;;17.24;100.00
68594;BME280;55563;52.416;13.548;2022-10-16T09:30:35;101158.81;;;17.40;100.00
68594;BME280;55563;52.416;13.548;2022-10-16T09:32:40;101151.84;;;17.44;100.00
68594;BME280;55563;52.416;13.548;2022-10-16T09:34:46;101157.63;;;17.47;100.00
68594;BME280;55563;52.416;13.548;2022-10-16T09:36:48;101145.56;;;17.54;100.00
68594;BME280;55563;52.416;13.548;2022-10-16T09:38:49;101147.56;;;17.62;100.00
68594;BME280;55563;52.416;13.548;2022-10-16T09:40:50;101146.59;;;17.72;100.00
68594;BME280;55563;52.416;13.548;2022-10-16T09:42:57;101151.66;;;17.87;100.00
68594;BME280;55563;52.416;13.548;2022-10-16T09:45:01;101153.22;;;17.88;100.00
68594;BME280;55563;52.416;13.548;2022-10-16T09:47:05;101160.13;;;18.03;100.00
68594;BME280;55563;52.416;13.548;2022-10-16T09:49:26;101167.91;;;17.99;100.00
68594;BME280;55563;52.416;13.548;2022-10-16T09:51:31;101179.66;;;18.12;100.00
68594;BME280;55563;52.416;13.548;2022-10-16T09:53:40;101180.63;;;18.02;100.00
68594;BME280;55563;52.416;13.548;2022-10-16T09:55:56;101176.56;;;17.91;100.00
68594;BME280;55563;52.416;13.548;2022-10-16T09:57:56;101180.22;;;17.95;100.00
68594;BME280;55563;52.416;13.548;2022-10-16T09:59:58;101181.00;;;17.96;100.00
68594;BME280;55563;52.416;13.548;2022-10-16T10:02:04;101172.84;;;17.92;100.00
68594;BME280;55563;52.416;13.548;2022-10-16T10:04:12;101180.22;;;17.95;100.00
68594;BME280;55563;52.416;13.548;2022-10-16T10:06:22;101185.06;;;17.93;100.00
68594;BME280;55563;52.416;13.548;2022-10-16T10:08:24;101188.72;;;18.11;100.00
68594;BME280;55563;52.416;13.548;2022-10-16T10:10:30;101191.09;;;18.12;100.00
68594;BME280;55563;52.416;13.548;2022-10-16T10:12:32;101199.06;;;18.12;100.00
68594;BME280;55563;52.416;13.548;2022-10-16T10:16:47;101203.09;;;18.23;100.00
68594;BME280;55563;52.416;13.548;2022-10-16T10:18:58;101200.75;;;18.36;100.00
68594;BME280;55563;52.416;13.548;2022-10-16T10:21:00;101203.03;;;18.56;100.00
68594;BME280;55563;52.416;13.548;2022-10-16T10:23:20;101206.06;;;18.63;100.00
68594;BME280;55563;52.416;13.548;2022-10-16T10:25:59;101207.25;;;18.70;99.39
68594;BME280;55563;52.416;13.548;2022-10-16T10:35:18;101194.72;;;18.44;97.79
68594;BME280;55563;52.416;13.548;2022-10-16T10:40:11;101200.06;;;18.57;96.35
68594;BME280;55563;52.416;13.548;2022-10-16T10:45:11;101206.78;;;18.55;96.17
68594;BME280;55563;52.416;13.548;2022-10-16T10:47:40;101207.47;;;18.60;94.06
68594;BME280;55563;52.416;13.548;2022-10-16T10:55:03;101210.31;;;18.64;94.08
68594;BME280;55563;52.416;13.548;2022-10-16T10:57:25;101209.13;;;18.70;94.81
68594;BME280;55563;52.416;13.548;2022-10-16T11:01:56;101221.06;;;18.72;93.82
68594;BME280;55563;52.416;13.548;2022-10-16T11:04:18;101225.00;;;18.75;93.64
68594;BME280;55563;52.416;13.548;2022-10-16T11:06:52;101226.47;;;18.81;92.71
68594;BME280;55563;52.416;13.548;2022-10-16T11:09:01;101222.72;;;18.82;92.90